Time;durP1;ratioP1;P1;durP2;ratioP2;P2;SDS_P1;SDS_P2;PMS_P1;PMS_P2;Temp;Humidity;BMP_temperature;BMP_pressure;BME280_temperature;BME280_humidity;BME280_pressure;Samples;Min_cycle;Max_cycle;Signal;HPM_P1;HPM_P2
2022/09/19 00:00:07;;;;;;;0.50;0.50;;;11.60;99.90;;;;;;5036671;28;20522;-92
2022/09/19 00:02:32;;;;;;;0.60;0.60;;;11.60;99.90;;;;;;5034414;28;20040;-91
2022/09/19 00:04:59;;;;;;;0.45;0.45;;;11.70;99.90;;;;;;5024728;28;20050;-91
2022/09/19 00:07:27;;;;;;;0.50;0.50;;;11.60;99.90;;;;;;5023897;28;20064;-95
2022/09/19 00:09:58;;;;;;;0.50;0.50;;;11.70;99.90;;;;;;5012952;28;20054;-94
2022/09/19 00:12:28;;;;;;;0.50;0.50;;;11.70;99.90;;;;;;5028420;28;20047;-91
2022/09/19 00:14:57;;;;;;;0.50;0.50;;;11.70;99.90;;;;;;5020784;28;20265;-91
2022/09/19 00:17:26;;;;;;;0.50;0.50;;;11.70;99.90;;;;;;4990922;28;20810;-92
2022/09/19 00:19:53;;;;;;;0.50;0.50;;;11.80;99.90;;;;;;5002437;28;20044;-90
2022/09/19 00:22:22;;;;;;;0.50;0.50;;;11.70;99.90;;;;;;5007944;28;20048;-95
2022/09/19 00:24:51;;;;;;;0.50;0.50;;;11.80;99.90;;;;;;5022250;28;20079;-94
2022/09/19 00:27:22;;;;;;;0.50;0.50;;;11.80;99.90;;;;;;5001047;28;20040;-89
2022/09/19 00:29:52;;;;;;;0.50;0.50;;;11.80;99.90;;;;;;5012642;28;20768;-96
2022/09/19 00:32:21;;;;;;;0.50;0.50;;;11.80;99.90;;;;;;5018481;28;20044;-91
2022/09/19 00:35:01;;;;;;;0.50;0.50;;;11.70;99.90;;;;;;5021234;28;20039;-84
2022/09/19 00:37:29;;;;;;;0.50;0.50;;;11.70;99.90;;;;;;5017644;28;20039;-90
2022/09/19 00:40:22;;;;;;;0.50;0.50;;;11.80;99.90;;;;;;5029523;28;20044;-95
2022/09/19 00:42:48;;;;;;;0.50;0.50;;;11.80;99.90;;;;;;4955231;28;20752;-91
2022/09/19 00:45:16;;;;;;;0.50;0.50;;;11.80;99.90;;;;;;4999576;28;20730;-89
2022/09/19 00:47:47;;;;;;;0.50;0.50;;;11.80;99.90;;;;;;5017092;28;20063;-87
2022/09/19 00:50:27;;;;;;;0.50;0.50;;;11.80;99.90;;;;;;5023287;28;20319;-86
2022/09/19 00:52:58;;;;;;;0.50;0.50;;;11.80;99.90;;;;;;5026830;27;20043;-92
2022/09/19 00:55:24;;;;;;;0.50;0.50;;;11.90;99.90;;;;;;5009976;28;20080;-89
2022/09/19 00:58:03;;;;;;;0.50;0.50;;;11.80;99.90;;;;;;5008789;28;20058;-86
2022/09/19 01:00:29;;;;;;;0.50;0.50;;;11.80;99.90;;;;;;5020824;28;20047;-91
2022/09/19 01:02:56;;;;;;;0.50;0.50;;;11.80;99.90;;;;;;5011512;28;20447;-93
2022/09/19 01:05:30;;;;;;;0.50;0.50;;;11.90;99.90;;;;;;5008045;28;20047;-88
2022/09/19 01:08:21;;;;;;;0.40;0.40;;;11.80;99.90;;;;;;5023087;28;20490;-90
2022/09/19 01:11:18;;;;;;;0.50;0.50;;;11.80;99.90;;;;;;5027623;28;20058;-89
2022/09/19 01:13:54;;;;;;;0.50;0.50;;;11.80;99.90;;;;;;5015107;27;20354;-91
2022/09/19 01:16:34;;;;;;;0.50;0.50;;;11.80;99.90;;;;;;5006954;27;20536;-90
2022/09/19 01:19:20;;;;;;;0.50;0.50;;;11.70;99.90;;;;;;5018205;28;20831;-87
2022/09/19 01:22:18;;;;;;;0.50;0.50;;;11.70;99.90;;;;;;5025326;27;20127;-88
2022/09/19 01:24:54;;;;;;;0.50;0.50;;;11.70;99.90;;;;;;4995016;28;20853;-91
2022/09/19 01:27:28;;;;;;;0.50;0.50;;;11.60;99.90;;;;;;5005720;28;20382;-86
2022/09/19 01:30:00;;;;;;;;;;;11.60;99.90;;;;;;5024907;28;20052;-89
2022/09/19 01:32:33;;;;;;;0.50;0.50;;;11.50;99.90;;;;;;5019201;27;19924;-88
2022/09/19 01:35:02;;;;;;;0.50;0.50;;;11.60;99.90;;;;;;5019706;28;20200;-90
2022/09/19 01:37:51;;;;;;;0.50;0.50;;;11.60;99.90;;;;;;5012104;28;20044;-87
2022/09/19 01:40:18;;;;;;;0.50;0.50;;;11.60;99.90;;;;;;5030861;27;20047;-89
2022/09/19 01:42:55;;;;;;;0.50;0.50;;;11.60;99.90;;;;;;4988421;28;20074;-89
2022/09/19 01:45:31;;;;;;;0.50;0.50;;;11.70;99.90;;;;;;4992529;28;20047;-92
2022/09/19 01:48:08;;;;;;;0.50;0.50;;;11.70;99.90;;;;;;5001023;28;20106;-92
2022/09/19 01:50:59;;;;;;;0.50;0.50;;;11.70;99.90;;;;;;4998758;28;20401;-90
2022/09/19 01:53:46;;;;;;;0.50;0.50;;;11.70;99.90;;;;;;4990173;28;20431;-91
2022/09/19 01:56:41;;;;;;;0.50;0.50;;;11.60;99.90;;;;;;4999942;28;20494;-86
2022/09/19 01:59:31;;;;;;;0.50;0.50;;;11.70;99.90;;;;;;5022381;28;20048;-89
2022/09/19 02:02:17;;;;;;;0.50;0.50;;;11.70;99.90;;;;;;5029045;27;20041;-95
2022/09/19 02:04:58;;;;;;;0.50;0.50;;;11.60;99.90;;;;;;5001413;28;20060;-89
2022/09/19 02:07:42;;;;;;;0.50;0.50;;;11.60;99.90;;;;;;4996277;28;20066;-91
2022/09/19 02:10:36;;;;;;;0.50;0.50;;;11.60;99.90;;;;;;4985026;28;20375;-89
2022/09/19 02:13:04;;;;;;;0.50;0.50;;;11.60;99.90;;;;;;4992158;28;20052;-87
2022/09/19 02:15:33;;;;;;;0.50;0.50;;;11.50;99.90;;;;;;5013040;28;20040;-89
2022/09/19 02:18:24;;;;;;;0.50;0.50;;;11.60;99.90;;;;;;4996651;28;20364;-90
2022/09/19 02:21:05;;;;;;;0.50;0.50;;;11.60;99.90;;;;;;4984111;28;20040;-86
2022/09/19 02:23:37;;;;;;;0.50;0.50;;;11.70;99.90;;;;;;5000567;28;20401;-89
2022/09/19 02:26:06;;;;;;;0.50;0.50;;;11.70;99.90;;;;;;5018310;28;20985;-91
2022/09/19 02:28:45;;;;;;;0.50;0.50;;;11.70;99.90;;;;;;5003758;28;20048;-90
2022/09/19 02:31:12;;;;;;;0.50;0.50;;;11.60;99.90;;;;;;4985849;28;20041;-88
2022/09/19 02:33:42;;;;;;;0.50;0.50;;;11.70;99.90;;;;;;5005129;28;20384;-89
2022/09/19 02:36:17;;;;;;;0.50;0.50;;;11.70;99.90;;;;;;4980665;28;20047;-91
2022/09/19 02:39:03;;;;;;;0.50;0.50;;;11.70;99.90;;;;;;5003983;28;20381;-88
2022/09/19 02:41:52;;;;;;;0.50;0.50;;;11.70;99.90;;;;;;5003763;28;20648;-88
2022/09/19 02:44:52;;;;;;;0.50;0.50;;;11.70;99.90;;;;;;5016944;28;20146;-86
2022/09/19 02:47:39;;;;;;;0.50;0.50;;;11.70;99.90;;;;;;5000922;28;20967;-89
2022/09/19 02:50:18;;;;;;;0.50;0.50;;;11.60;99.90;;;;;;5018462;28;20056;-86
2022/09/19 02:52:47;;;;;;;0.55;0.55;;;11.70;99.90;;;;;;5017227;28;20058;-91
2022/09/19 02:55:24;;;;;;;0.50;0.50;;;11.70;99.90;;;;;;4995069;28;20079;-88
2022/09/19 02:57:54;;;;;;;0.50;0.50;;;11.60;99.90;;;;;;5019770;28;20055;-87
2022/09/19 03:00:24;;;;;;;0.50;0.50;;;11.60;99.90;;;;;;5017608;28;20056;-86
2022/09/19 03:05:59;;;;;;;0.50;0.50;;;11.70;99.90;;;;;;5024316;27;20084;-88
2022/09/19 03:08:36;;;;;;;0.50;0.50;;;11.70;99.90;;;;;;5015154;28;20051;-87
2022/09/19 03:11:10;;;;;;;0.50;0.50;;;11.80;99.90;;;;;;5021094;27;20888;-87
2022/09/19 03:13:40;;;;;;;0.50;0.50;;;11.80;99.90;;;;;;5033660;27;20078;-90
2022/09/19 03:16:27;;;;;;;0.50;0.50;;;11.80;99.90;;;;;;5001382;28;20333;-88
2022/09/19 03:18:57;;;;;;;0.50;0.50;;;11.80;99.90;;;;;;5008412;28;20044;-86
2022/09/19 03:21:26;;;;;;;0.50;0.50;;;11.80;99.90;;;;;;5021333;27;20044;-92
2022/09/19 03:23:58;;;;;;;0.50;0.50;;;11.80;99.90;;;;;;5016018;28;20047;-89
2022/09/19 03:26:30;;;;;;;0.50;0.50;;;11.80;99.90;;;;;;5015952;27;20116;-88
2022/09/19 03:29:04;;;;;;;0.50;0.50;;;11.70;99.90;;;;;;5006536;28;20048;-91
2022/09/19 03:31:30;;;;;;;;;;;11.70;99.90;;;;;;5014526;28;20054;-86
2022/09/19 03:33:57;;;;;;;0.55;0.55;;;11.70;99.90;;;;;;5003808;28;20484;-86
2022/09/19 03:36:25;;;;;;;0.57;0.57;;;11.70;99.90;;;;;;5014199;28;20445;-89
2022/09/19 03:38:50;;;;;;;0.50;0.50;;;11.70;99.90;;;;;;5014092;27;20052;-89
2022/09/19 03:41:34;;;;;;;0.50;0.50;;;11.70;99.90;;;;;;5016976;28;20113;-90
2022/09/19 03:44:01;;;;;;;0.50;0.50;;;11.70;99.90;;;;;;5010960;28;20511;-88
2022/09/19 03:46:30;;;;;;;0.50;0.50;;;11.70;99.90;;;;;;5024049;28;20089;-92
2022/09/19 03:49:00;;;;;;;0.50;0.50;;;11.60;99.90;;;;;;5035243;28;20044;-94
2022/09/19 03:51:27;;;;;;;0.60;0.60;;;11.60;99.90;;;;;;5039472;28;20040;-88
2022/09/19 03:53:53;;;;;;;0.60;0.60;;;11.60;99.90;;;;;;5016137;28;20047;-89
2022/09/19 03:56:19;;;;;;;0.50;0.50;;;11.60;99.90;;;;;;5027944;27;20044;-86
2022/09/19 03:58:45;;;;;;;0.50;0.50;;;11.60;99.90;;;;;;5016320;27;20431;-86
2022/09/19 04:01:14;;;;;;;0.50;0.50;;;11.60;99.90;;;;;;5020554;28;20130;-86
2022/09/19 04:03:41;;;;;;;0.50;0.50;;;11.60;99.90;;;;;;4999537;28;20678;-86
2022/09/19 04:06:07;;;;;;;0.50;0.50;;;11.60;99.90;;;;;;4998341;28;20404;-85
2022/09/19 04:08:33;;;;;;;0.50;0.50;;;11.60;99.90;;;;;;4998171;28;20482;-86
2022/09/19 04:10:59;;;;;;;0.50;0.50;;;11.60;99.90;;;;;;5013699;27;20117;-87
2022/09/19 04:13:27;;;;;;;0.50;0.50;;;11.50;99.90;;;;;;5000757;28;20493;-87
2022/09/19 04:15:54;;;;;;;0.60;0.60;;;11.50;99.90;;;;;;4994319;28;20435;-87
2022/09/19 04:18:20;;;;;;;0.60;0.60;;;11.50;99.90;;;;;;5020702;27;20527;-86
2022/09/19 04:20:50;;;;;;;0.50;0.50;;;11.40;99.90;;;;;;5013619;27;21096;-87
2022/09/19 04:23:17;;;;;;;0.50;0.50;;;11.40;99.90;;;;;;4993916;28;20051;-86
2022/09/19 04:25:44;;;;;;;0.50;0.50;;;11.40;99.90;;;;;;5015317;27;20052;-87
2022/09/19 04:28:11;;;;;;;0.50;0.50;;;11.40;99.90;;;;;;4997526;27;20043;-87
2022/09/19 04:30:40;;;;;;;0.50;0.50;;;11.40;99.90;;;;;;5002975;27;20587;-87
2022/09/19 04:33:10;;;;;;;0.50;0.50;;;11.40;99.90;;;;;;5002257;28;20422;-87
2022/09/19 04:35:37;;;;;;;0.50;0.50;;;11.30;99.90;;;;;;5013935;28;20559;-88
2022/09/19 04:38:08;;;;;;;0.50;0.50;;;11.30;99.90;;;;;;5024541;28;20043;-87
2022/09/19 04:40:42;;;;;;;0.50;0.50;;;11.30;99.90;;;;;;5000055;27;20043;-87
2022/09/19 04:43:12;;;;;;;0.55;0.55;;;11.40;99.90;;;;;;5006081;27;20845;-87
2022/09/19 04:45:42;;;;;;;0.50;0.50;;;11.40;99.90;;;;;;4997621;27;20642;-85
2022/09/19 04:48:08;;;;;;;0.50;0.50;;;11.40;99.90;;;;;;4999252;27;20044;-88
2022/09/19 04:50:35;;;;;;;0.50;0.50;;;11.40;99.90;;;;;;5018752;27;20081;-88
2022/09/19 04:53:03;;;;;;;0.50;0.50;;;11.40;99.90;;;;;;4998522;27;20073;-87
2022/09/19 04:55:31;;;;;;;0.50;0.50;;;11.40;99.90;;;;;;5018089;27;20039;-87
2022/09/19 04:58:00;;;;;;;0.60;0.60;;;11.40;99.90;;;;;;5016194;27;20047;-86
2022/09/19 05:00:39;;;;;;;0.50;0.50;;;11.50;99.90;;;;;;5009752;27;20453;-88
2022/09/19 05:03:11;;;;;;;0.50;0.50;;;11.40;99.90;;;;;;5014247;27;20829;-86
2022/09/19 05:05:50;;;;;;;0.50;0.50;;;11.40;99.90;;;;;;5012878;27;20062;-87
2022/09/19 05:08:19;;;;;;;0.50;0.50;;;11.40;99.90;;;;;;5015355;27;20066;-86
2022/09/19 05:10:46;;;;;;;0.50;0.50;;;11.40;99.90;;;;;;5013796;27;20057;-86
2022/09/19 05:13:14;;;;;;;0.50;0.50;;;11.40;99.90;;;;;;5008980;27;20333;-86
2022/09/19 05:15:44;;;;;;;0.50;0.50;;;11.40;99.90;;;;;;5013591;27;20205;-86
2022/09/19 05:18:10;;;;;;;0.50;0.50;;;11.40;99.90;;;;;;4996043;27;20047;-87
2022/09/19 05:20:37;;;;;;;0.50;0.50;;;11.40;99.90;;;;;;5015326;27;20162;-86
2022/09/19 05:23:04;;;;;;;0.50;0.50;;;11.40;99.90;;;;;;5015988;27;20132;-86
2022/09/19 05:25:35;;;;;;;0.60;0.60;;;11.40;99.90;;;;;;5018967;27;20050;-86
2022/09/19 05:28:04;;;;;;;0.50;0.50;;;11.50;99.90;;;;;;4992014;27;20055;-84
2022/09/19 05:30:36;;;;;;;0.50;0.50;;;11.50;99.90;;;;;;5013930;27;20183;-84
2022/09/19 05:33:03;;;;;;;0.50;0.50;;;11.60;99.90;;;;;;5019619;27;20042;-84
2022/09/19 05:35:30;;;;;;;0.50;0.50;;;11.60;99.90;;;;;;5009404;27;20039;-84
2022/09/19 05:37:57;;;;;;;0.50;0.50;;;11.70;99.90;;;;;;5017231;27;20998;-84
2022/09/19 05:40:25;;;;;;;0.52;0.52;;;11.60;99.90;;;;;;5007173;27;20513;-83
2022/09/19 05:42:53;;;;;;;0.50;0.50;;;11.70;99.90;;;;;;5008248;27;20382;-86
2022/09/19 05:45:22;;;;;;;0.50;0.50;;;11.80;99.90;;;;;;5000191;27;20152;-85
2022/09/19 05:47:49;;;;;;;0.50;0.50;;;11.80;99.90;;;;;;5006333;27;20285;-88
2022/09/19 05:50:15;;;;;;;0.50;0.50;;;11.80;99.90;;;;;;4987582;27;20894;-86
2022/09/19 05:55:28;;;;;;;0.50;0.50;;;11.80;99.90;;;;;;5002715;27;20519;-85
2022/09/19 05:57:56;;;;;;;0.50;0.50;;;11.80;99.90;;;;;;5006555;27;20054;-87
2022/09/19 06:00:25;;;;;;;0.50;0.50;;;11.90;99.90;;;;;;4987383;27;20043;-85
2022/09/19 06:03:02;;;;;;;0.50;0.50;;;11.90;99.90;;;;;;5007552;27;20380;-86
2022/09/19 06:05:32;;;;;;;0.50;0.50;;;11.90;99.90;;;;;;5013514;27;20038;-85
2022/09/19 06:08:00;;;;;;;0.50;0.50;;;11.90;99.90;;;;;;4992300;27;20047;-88
2022/09/19 06:10:27;;;;;;;0.50;0.50;;;11.90;99.90;;;;;;5016371;27;20973;-87
2022/09/19 06:12:53;;;;;;;0.50;0.50;;;12.00;99.90;;;;;;4979865;27;20531;-86
2022/09/19 06:15:20;;;;;;;0.60;0.60;;;12.00;99.90;;;;;;4989516;27;20277;-86
2022/09/19 06:17:48;;;;;;;0.50;0.50;;;12.00;99.90;;;;;;5002539;27;20051;-85
2022/09/19 06:20:15;;;;;;;0.50;0.50;;;11.90;99.90;;;;;;5005837;27;20043;-85
2022/09/19 06:22:41;;;;;;;0.50;0.50;;;11.90;99.90;;;;;;5004433;27;20263;-85
2022/09/19 06:25:08;;;;;;;0.50;0.50;;;12.00;99.90;;;;;;5006786;27;20050;-84
2022/09/19 06:27:35;;;;;;;0.50;0.50;;;11.90;99.90;;;;;;5019739;27;20039;-87
2022/09/19 06:30:03;;;;;;;0.50;0.50;;;12.00;99.90;;;;;;5011963;28;20127;-86
2022/09/19 06:32:28;;;;;;;0.50;0.50;;;12.10;99.90;;;;;;4991221;27;20043;-87
2022/09/19 06:34:55;;;;;;;0.50;0.50;;;12.10;99.90;;;;;;4985892;28;20047;-85
2022/09/19 06:37:21;;;;;;;0.50;0.50;;;12.20;99.90;;;;;;5001282;28;20402;-83
2022/09/19 06:39:47;;;;;;;0.50;0.50;;;12.50;99.90;;;;;;5002004;28;20088;-85
2022/09/19 06:42:13;;;;;;;0.50;0.50;;;12.70;99.90;;;;;;4998091;28;20504;-85
2022/09/19 06:44:39;;;;;;;0.50;0.50;;;12.60;99.90;;;;;;5009397;28;20047;-86
2022/09/19 06:47:06;;;;;;;0.50;0.50;;;12.70;99.90;;;;;;5006203;28;20578;-85
2022/09/19 06:49:33;;;;;;;0.50;0.50;;;12.90;99.90;;;;;;4972683;28;20048;-84
2022/09/19 06:52:05;;;;;;;0.50;0.50;;;13.10;99.90;;;;;;4988607;28;20047;-83
2022/09/19 06:54:31;;;;;;;0.50;0.50;;;13.30;99.90;;;;;;5000506;28;20079;-83
2022/09/19 06:56:57;;;;;;;0.50;0.50;;;13.40;99.90;;;;;;4989604;28;20083;-82
2022/09/19 06:59:23;;;;;;;0.50;0.50;;;13.40;99.90;;;;;;5003537;28;20543;-84
2022/09/19 07:01:49;;;;;;;0.50;0.50;;;13.50;99.90;;;;;;4981788;28;20050;-83
2022/09/19 07:04:16;;;;;;;0.50;0.50;;;13.50;99.90;;;;;;5010976;28;20888;-85
2022/09/19 07:06:42;;;;;;;0.50;0.50;;;13.50;99.90;;;;;;4989350;28;20411;-84
2022/09/19 07:09:08;;;;;;;0.50;0.50;;;13.50;99.90;;;;;;5008882;28;20640;-82
2022/09/19 07:11:36;;;;;;;0.43;0.43;;;13.50;99.90;;;;;;5006568;28;20104;-83
2022/09/19 07:14:03;;;;;;;0.50;0.50;;;13.30;99.90;;;;;;5000015;28;20043;-85
2022/09/19 07:16:29;;;;;;;0.50;0.50;;;13.30;99.90;;;;;;4994337;28;20097;-84
2022/09/19 07:18:55;;;;;;;0.50;0.50;;;13.10;99.90;;;;;;5004062;28;20568;-83
2022/09/19 07:21:21;;;;;;;0.50;0.50;;;13.10;99.90;;;;;;5000790;28;20088;-83
2022/09/19 07:23:47;;;;;;;0.40;0.40;;;13.10;99.90;;;;;;4968610;28;20051;-84
2022/09/19 07:26:14;;;;;;;0.50;0.50;;;13.00;99.90;;;;;;4971008;28;20151;-84
2022/09/19 07:28:40;;;;;;;0.50;0.50;;;13.00;99.90;;;;;;4985388;28;20089;-84
2022/09/19 07:31:07;;;;;;;0.50;0.50;;;13.00;99.90;;;;;;4992317;28;20075;-84
2022/09/19 07:33:32;;;;;;;0.50;0.50;;;13.00;99.90;;;;;;4994889;28;20147;-85
2022/09/19 07:35:59;;;;;;;0.50;0.50;;;13.30;99.90;;;;;;5006840;28;20435;-86
2022/09/19 07:38:29;;;;;;;0.50;0.50;;;13.70;99.90;;;;;;4994219;28;20043;-84
2022/09/19 07:40:55;;;;;;;0.50;0.50;;;14.10;99.90;;;;;;4971890;28;20651;-83
2022/09/19 07:43:21;;;;;;;0.50;0.50;;;14.20;99.90;;;;;;4984912;28;20494;-89
2022/09/19 07:45:50;;;;;;;0.50;0.50;;;14.20;99.90;;;;;;4962992;28;20540;-82
2022/09/19 07:48:17;;;;;;;0.50;0.50;;;14.20;99.90;;;;;;4967970;28;20040;-83
2022/09/19 07:50:43;;;;;;;0.50;0.50;;;14.20;99.90;;;;;;4960556;28;20884;-84
2022/09/19 07:53:16;;;;;;;0.50;0.50;;;14.30;99.90;;;;;;4994790;28;20154;-85
2022/09/19 07:55:42;;;;;;;0.50;0.50;;;14.20;99.90;;;;;;4980976;28;20870;-82
2022/09/19 07:58:10;;;;;;;0.40;0.40;;;14.20;99.90;;;;;;4989680;28;20060;-86
2022/09/19 08:00:37;;;;;;;0.50;0.50;;;14.00;99.90;;;;;;4986101;28;20040;-83
2022/09/19 08:03:09;;;;;;;0.50;0.50;;;14.00;99.90;;;;;;4969898;28;20735;-83
2022/09/19 08:05:38;;;;;;;0.40;0.40;;;14.00;99.90;;;;;;4975951;28;20239;-82
2022/09/19 08:08:10;;;;;;;0.50;0.50;;;14.30;99.90;;;;;;4977981;28;20056;-86
2022/09/19 08:10:37;;;;;;;0.45;0.45;;;14.30;99.90;;;;;;4990622;28;20465;-83
2022/09/19 08:13:05;;;;;;;0.40;0.40;;;14.70;99.90;;;;;;4985973;28;20214;-84
2022/09/19 08:15:33;;;;;;;0.40;0.40;;;14.90;99.90;;;;;;4989327;28;20044;-84
2022/09/19 08:18:04;;;;;;;0.50;0.50;;;14.90;99.90;;;;;;4971293;28;20066;-82
2022/09/19 08:20:33;;;;;;;0.40;0.40;;;14.80;99.90;;;;;;4985953;28;20877;-85
2022/09/19 08:23:03;;;;;;;0.40;0.40;;;14.70;99.90;;;;;;4993249;28;20047;-85
2022/09/19 08:25:32;;;;;;;0.50;0.50;;;14.80;99.90;;;;;;4987347;28;20547;-82
2022/09/19 08:27:58;;;;;;;0.50;0.50;;;14.70;99.90;;;;;;4965431;28;20136;-84
2022/09/19 08:30:26;;;;;;;0.40;0.40;;;14.70;99.90;;;;;;4986134;28;20127;-81
2022/09/19 08:32:53;;;;;;;0.40;0.40;;;14.90;99.90;;;;;;4973181;28;20510;-83
2022/09/19 08:35:20;;;;;;;0.40;0.40;;;15.10;99.90;;;;;;4977525;28;20059;-84
2022/09/19 08:37:47;;;;;;;0.40;0.40;;;15.10;99.90;;;;;;4987135;28;20128;-86
2022/09/19 08:40:16;;;;;;;0.43;0.43;;;15.20;99.90;;;;;;4991377;28;20535;-84
2022/09/19 08:43:27;;;;;;;0.40;0.40;;;15.20;99.90;;;;;;5004203;28;20222;-84
2022/09/19 08:46:17;;;;;;;0.40;0.40;;;15.30;99.90;;;;;;4996802;27;20051;-84
2022/09/19 08:48:58;;;;;;;0.50;0.50;;;15.50;99.90;;;;;;5002381;28;20473;-86
2022/09/19 08:51:55;;;;;;;0.40;0.40;;;15.30;99.90;;;;;;5008785;28;20093;-85
2022/09/19 08:54:34;;;;;;;0.50;0.50;;;15.50;99.90;;;;;;4982187;28;20748;-84
2022/09/19 08:57:01;;;;;;;0.40;0.40;;;15.60;99.90;;;;;;5000077;28;20425;-84
2022/09/19 08:59:37;;;;;;;0.40;0.40;;;16.00;99.90;;;;;;4993190;28;20552;-82
2022/09/19 09:02:35;;;;;;;0.40;0.40;;;16.10;99.90;;;;;;5001866;28;20391;-82
2022/09/19 09:05:01;;;;;;;0.40;0.40;;;16.20;99.90;;;;;;5011155;28;20683;-85
2022/09/19 09:07:58;;;;;;;0.50;0.50;;;16.60;99.90;;;;;;5019548;28;20109;-83
2022/09/19 09:10:32;;;;;;;0.50;0.50;;;16.90;99.90;;;;;;5008859;28;20504;-84
2022/09/19 09:13:01;;;;;;;;;;;17.00;99.90;;;;;;4982738;28;20044;-80
2022/09/19 09:15:30;;;;;;;0.50;0.50;;;17.20;99.90;;;;;;5007361;28;19934;-82
2022/09/19 09:18:05;;;;;;;0.50;0.50;;;17.20;99.90;;;;;;5001342;28;20044;-85
2022/09/19 09:21:03;;;;;;;0.40;0.40;;;17.50;99.90;;;;;;5008104;28;20241;-86
2022/09/19 09:23:36;;;;;;;0.40;0.40;;;17.70;99.90;;;;;;5003741;28;20114;-82
2022/09/19 09:26:21;;;;;;;0.40;0.40;;;17.90;99.90;;;;;;5002698;28;20052;-81
2022/09/19 09:29:11;;;;;;;;;;;17.90;99.90;;;;;;5000569;28;20404;-85
2022/09/19 09:32:06;;;;;;;0.40;0.40;;;17.80;99.90;;;;;;4995303;28;19928;-84
2022/09/19 09:34:42;;;;;;;0.40;0.40;;;17.60;99.90;;;;;;4995105;27;20484;-85
2022/09/19 09:37:22;;;;;;;0.40;0.40;;;17.60;99.90;;;;;;4998143;28;20724;-84
2022/09/19 09:41:45;;;;;;;0.40;0.40;;;17.30;99.90;;;;;;4996983;28;20051;-84
2022/09/19 09:43:07;;;;;;;0.50;0.50;;;17.40;99.90;;;;;;5006835;28;20058;-82
2022/09/19 09:45:50;;;;;;;0.40;0.40;;;17.30;99.90;;;;;;5005516;28;20492;-82
2022/09/19 09:48:38;;;;;;;0.50;0.50;;;17.20;99.90;;;;;;5006364;28;20475;-81
2022/09/19 09:51:34;;;;;;;0.50;0.50;;;17.50;99.90;;;;;;5001517;28;20043;-80
2022/09/19 09:57:24;;;;;;;0.40;0.40;;;17.90;99.90;;;;;;5001377;28;20087;-82
2022/09/19 10:03:35;;;;;;;0.40;0.40;;;18.60;99.90;;;;;;5000150;28;20166;-80
2022/09/19 10:06:14;;;;;;;0.40;0.40;;;18.80;99.90;;;;;;5004421;28;20068;-80
2022/09/19 10:09:04;;;;;;;0.40;0.40;;;18.40;99.90;;;;;;4995664;28;20121;-82
2022/09/19 10:11:33;;;;;;;0.50;0.50;;;17.90;99.90;;;;;;5002836;28;20529;-80
2022/09/19 10:14:01;;;;;;;0.40;0.40;;;17.10;99.90;;;;;;5008646;28;20063;-80
2022/09/19 10:16:32;;;;;;;0.40;0.40;;;17.10;99.90;;;;;;5008208;28;20411;-82
2022/09/19 10:19:19;;;;;;;0.40;0.40;;;17.40;99.90;;;;;;5007557;28;20463;-82
2022/09/19 10:21:47;;;;;;;0.50;0.50;;;17.40;99.90;;;;;;4995886;28;20052;-82
2022/09/19 10:24:40;;;;;;;0.50;0.50;;;17.40;99.90;;;;;;4999502;28;20936;-80
2022/09/19 10:27:24;;;;;;;0.50;0.50;;;17.60;99.90;;;;;;4929093;28;20282;-79
2022/09/19 10:30:18;;;;;;;0.40;0.40;;;17.60;99.90;;;;;;4909311;28;20610;-81
2022/09/19 10:32:45;;;;;;;0.50;0.50;;;17.60;99.90;;;;;;4995227;28;20851;-80
2022/09/19 10:35:30;;;;;;;0.50;0.50;;;17.70;99.90;;;;;;4992712;28;20056;-80
2022/09/19 10:38:16;;;;;;;0.40;0.40;;;18.30;99.90;;;;;;5001618;28;20047;-82
2022/09/19 10:40:58;;;;;;;0.40;0.40;;;18.50;99.90;;;;;;5012171;28;20094;-80
2022/09/19 10:43:30;;;;;;;0.47;0.47;;;18.70;99.90;;;;;;5030921;28;20051;-81
2022/09/19 10:45:58;;;;;;;0.40;0.40;;;18.80;99.90;;;;;;5007753;28;20568;-81
2022/09/19 10:48:31;;;;;;;0.40;0.40;;;19.00;99.90;;;;;;5006292;28;20408;-81
2022/09/19 10:50:59;;;;;;;0.40;0.40;;;19.00;99.90;;;;;;5021581;28;20291;-81
2022/09/19 10:53:32;;;;;;;0.50;0.50;;;19.30;99.90;;;;;;5021542;28;20564;-82
2022/09/19 10:56:02;;;;;;;0.40;0.40;;;19.30;99.90;;;;;;5017428;28;20238;-81
2022/09/19 10:58:35;;;;;;;0.40;0.40;;;19.50;99.90;;;;;;5004830;28;20272;-80
2022/09/19 11:01:07;;;;;;;0.40;0.40;;;19.50;99.90;;;;;;5006638;28;20861;-81
2022/09/19 11:03:39;;;;;;;0.40;0.40;;;19.70;99.90;;;;;;5025447;27;20050;-81
2022/09/19 11:06:16;;;;;;;0.40;0.40;;;19.00;99.90;;;;;;5000706;27;20043;-81
2022/09/19 11:08:53;;;;;;;0.40;0.40;;;18.00;99.90;;;;;;5003144;28;20052;-80
2022/09/19 11:11:47;;;;;;;0.40;0.40;;;17.40;99.90;;;;;;4999868;28;20579;-81
2022/09/19 11:14:18;;;;;;;;;;;16.80;99.90;;;;;;5005175;28;20077;-80
2022/09/19 11:17:31;;;;;;;0.40;0.40;;;16.20;99.90;;;;;;5029442;27;19923;-80
2022/09/19 11:20:30;;;;;;;0.40;0.40;;;15.90;99.90;;;;;;5006894;28;20052;-81
2022/09/19 11:23:33;;;;;;;0.40;0.40;;;15.90;99.90;;;;;;5038502;27;20500;-81
2022/09/19 11:26:00;;;;;;;0.40;0.40;;;16.30;99.90;;;;;;5015906;27;20050;-80
2022/09/19 11:28:54;;;;;;;0.50;0.50;;;16.10;99.90;;;;;;5013403;27;20206;-80
2022/09/19 11:31:44;;;;;;;0.40;0.40;;;16.50;99.90;;;;;;5010561;27;20056;-79
2022/09/19 11:34:40;;;;;;;0.40;0.40;;;16.30;99.90;;;;;;5008652;27;20048;-82
2022/09/19 11:37:38;;;;;;;0.40;0.40;;;16.90;99.90;;;;;;5015069;27;20571;-80
2022/09/19 11:40:30;;;;;;;0.40;0.40;;;17.30;99.90;;;;;;5002949;28;20131;-80
2022/09/19 11:43:06;;;;;;;0.40;0.40;;;17.70;99.90;;;;;;5003397;27;20850;-82
2022/09/19 11:46:16;;;;;;;0.40;0.40;;;17.90;99.90;;;;;;5017122;27;20108;-81
2022/09/19 11:48:54;;;;;;;0.40;0.40;;;18.30;99.90;;;;;;5004023;27;20047;-80
2022/09/19 11:51:34;;;;;;;0.40;0.40;;;18.50;99.90;;;;;;5035937;27;20043;-79
2022/09/19 11:54:39;;;;;;;0.47;0.47;;;18.50;99.90;;;;;;5013040;27;20043;-78
2022/09/19 11:57:26;;;;;;;0.40;0.40;;;18.60;99.90;;;;;;5014359;27;20035;-79
2022/09/19 12:00:26;;;;;;;0.40;0.40;;;18.90;99.90;;;;;;4992257;27;20085;-80
2022/09/19 12:03:04;;;;;;;0.40;0.40;;;19.10;99.90;;;;;;5007460;27;20050;-81
2022/09/19 12:06:07;;;;;;;0.40;0.40;;;19.40;99.90;;;;;;5021193;27;20265;-80
2022/09/19 12:09:04;;;;;;;0.40;0.40;;;19.50;99.90;;;;;;5030885;27;21037;-79
2022/09/19 12:11:49;;;;;;;0.40;0.40;;;18.10;99.90;;;;;;5016076;27;20058;-79
2022/09/19 12:14:26;;;;;;;0.40;0.40;;;17.90;99.90;;;;;;5034048;27;20899;-80
2022/09/19 12:17:00;;;;;;;0.40;0.40;;;17.90;99.90;;;;;;5011233;27;20578;-79
2022/09/19 12:19:51;;;;;;;0.40;0.40;;;18.00;99.90;;;;;;5006967;27;20177;-80
2022/09/19 12:22:37;;;;;;;0.40;0.40;;;17.90;99.90;;;;;;5012640;27;20564;-82
2022/09/19 12:25:12;;;;;;;0.40;0.40;;;17.50;99.90;;;;;;5008342;27;20043;-83
2022/09/19 12:28:16;;;;;;;0.40;0.40;;;16.70;99.90;;;;;;5033405;27;20050;-96
2022/09/19 12:30:55;;;;;;;0.50;0.50;;;15.60;99.90;;;;;;5020794;27;20043;-92
2022/09/19 12:33:55;;;;;;;0.40;0.40;;;14.50;99.90;;;;;;5033889;27;20071;-92
2022/09/19 12:36:40;;;;;;;0.40;0.40;;;14.10;99.90;;;;;;5034568;27;20035;-94
2022/09/19 12:39:33;;;;;;;0.50;0.50;;;13.90;99.90;;;;;;5032185;27;20120;-93
2022/09/19 12:42:09;;;;;;;0.50;0.50;;;13.60;99.90;;;;;;5021734;28;20047;-90
2022/09/19 12:44:59;;;;;;;0.40;0.40;;;13.50;99.90;;;;;;5019707;28;20487;-89
2022/09/19 12:47:28;;;;;;;0.40;0.40;;;13.30;99.90;;;;;;5006431;28;20397;-89
2022/09/19 12:50:15;;;;;;;0.47;0.47;;;13.20;99.90;;;;;;5014662;28;20051;-88
2022/09/19 12:52:49;;;;;;;0.40;0.40;;;13.10;99.90;;;;;;5014673;27;20052;-90
2022/09/19 12:55:21;;;;;;;0.50;0.50;;;13.10;99.90;;;;;;5003420;28;20818;-89
2022/09/19 12:58:10;;;;;;;0.40;0.40;;;13.20;99.90;;;;;;5020793;28;20104;-91
2022/09/19 13:01:08;;;;;;;0.50;0.50;;;13.40;99.90;;;;;;5019630;28;20122;-92
2022/09/19 13:03:39;;;;;;;0.50;0.50;;;14.00;99.90;;;;;;5013593;28;20541;-93
2022/09/19 13:06:21;;;;;;;0.40;0.40;;;14.30;99.90;;;;;;4999878;28;20791;-93
2022/09/19 13:09:25;;;;;;;0.50;0.50;;;14.40;99.90;;;;;;5022074;28;20099;-95
2022/09/19 13:12:04;;;;;;;0.47;0.47;;;14.90;99.90;;;;;;5012132;28;20440;-90
2022/09/19 13:15:02;;;;;;;0.50;0.50;;;15.60;99.90;;;;;;5010003;28;20571;-95
2022/09/19 13:23:38;;;;;;;0.50;0.50;;;16.70;99.90;;;;;;5032773;28;20216;-87
2022/09/19 13:26:19;;;;;;;0.40;0.40;;;16.90;99.90;;;;;;5020061;28;20051;-87
2022/09/19 13:28:53;;;;;;;0.40;0.40;;;17.00;99.90;;;;;;5022931;28;20122;-90
2022/09/19 13:31:23;;;;;;;0.40;0.40;;;17.20;99.90;;;;;;5027366;28;20043;-88
2022/09/19 13:33:52;;;;;;;0.40;0.40;;;17.20;99.90;;;;;;5020897;28;20123;-90
2022/09/19 13:36:37;;;;;;;0.40;0.40;;;17.30;99.90;;;;;;5006909;28;20211;-91
2022/09/19 13:39:42;;;;;;;0.40;0.40;;;17.40;99.90;;;;;;5026358;28;20048;-89
2022/09/19 13:42:11;;;;;;;0.40;0.40;;;17.40;99.90;;;;;;5017161;28;20091;-86
2022/09/19 13:44:51;;;;;;;0.40;0.40;;;17.40;99.90;;;;;;5015380;28;20136;-89
2022/09/19 13:47:30;;;;;;;0.40;0.40;;;17.30;99.90;;;;;;5001501;28;20508;-88